FDB035 OJAI-OMDB
Flight info
| Callsign | FDB035 |
|---|---|
| Flight time | N/A |
| Altitude | 37000 |
| Route | KULDI1C KULDI N318 NEVOL Q255 LUDEP P559 VUTEB VUTEB4D |
| Aircraft | B738/M-SDE2E3FGHIRWXY/LB1 |
Departure
| Time | N/A |
|---|---|
| Airport | Queen Alia International Airport (OJAI) |
Arrival
| Time | 2026-04-22 20:16 |
|---|---|
| Airport | Dubai International Airport (OMDB) |
| Time | Latitude | Longitude | Altitude | Speed | Heading |
|---|---|---|---|---|---|
| 2026-04-22 19:28 | 26.44897 | 52.10015 | 36844 ft | 519 kts | 113° |
| 2026-04-22 19:29 | 26.43635 | 52.13793 | 36848 ft | 519 kts | 113° |
| 2026-04-22 19:29 | 26.41106 | 52.21337 | 36847 ft | 519 kts | 113° |
| 2026-04-22 19:30 | 26.38982 | 52.27655 | 36845 ft | 519 kts | 113° |
| 2026-04-22 19:30 | 26.36038 | 52.36404 | 36837 ft | 519 kts | 112° |
| 2026-04-22 19:31 | 26.33377 | 52.43886 | 36842 ft | 518 kts | 115° |
| 2026-04-22 19:31 | 26.30483 | 52.51255 | 36838 ft | 519 kts | 116° |
| 2026-04-22 19:32 | 26.27613 | 52.58631 | 36837 ft | 519 kts | 115° |
| 2026-04-22 19:32 | 26.24775 | 52.66038 | 36831 ft | 520 kts | 115° |
| 2026-04-22 19:33 | 26.21936 | 52.73438 | 36829 ft | 520 kts | 115° |
| 2026-04-22 19:33 | 26.19091 | 52.80856 | 36824 ft | 520 kts | 115° |
| 2026-04-22 19:34 | 26.16245 | 52.88266 | 36726 ft | 522 kts | 115° |
| 2026-04-22 19:34 | 26.14808 | 52.92000 | 36225 ft | 525 kts | 115° |
| 2026-04-22 19:34 | 26.13406 | 52.95734 | 35730 ft | 523 kts | 113° |
| 2026-04-22 19:34 | 26.12104 | 52.99512 | 35151 ft | 523 kts | 111° |
| 2026-04-22 19:35 | 26.10860 | 53.03306 | 34760 ft | 519 kts | 111° |
| 2026-04-22 19:35 | 26.09644 | 53.07066 | 34336 ft | 515 kts | 110° |
| 2026-04-22 19:35 | 26.08841 | 53.09542 | 34067 ft | 513 kts | 110° |
| 2026-04-22 19:35 | 26.07213 | 53.14506 | 33449 ft | 508 kts | 111° |
| 2026-04-22 19:36 | 26.05990 | 53.18183 | 33005 ft | 504 kts | 111° |
| 2026-04-22 19:36 | 26.04770 | 53.21819 | 32582 ft | 500 kts | 111° |
| 2026-04-22 19:36 | 26.03556 | 53.25419 | 32175 ft | 495 kts | 111° |
| 2026-04-22 19:36 | 26.02759 | 53.27778 | 31904 ft | 492 kts | 111° |
| 2026-04-22 19:37 | 26.01559 | 53.31323 | 31500 ft | 488 kts | 111° |
| 2026-04-22 19:37 | 25.99985 | 53.35970 | 30971 ft | 482 kts | 111° |
| 2026-04-22 19:37 | 25.98809 | 53.39442 | 30579 ft | 478 kts | 111° |
| 2026-04-22 19:37 | 25.97645 | 53.42874 | 30188 ft | 474 kts | 111° |
| 2026-04-22 19:38 | 25.96487 | 53.46290 | 29793 ft | 470 kts | 111° |
| 2026-04-22 19:38 | 25.95342 | 53.49665 | 29334 ft | 465 kts | 111° |
| 2026-04-22 19:38 | 25.94205 | 53.53012 | 28892 ft | 461 kts | 112° |
| 2026-04-22 19:38 | 25.93443 | 53.55255 | 28603 ft | 458 kts | 112° |
| 2026-04-22 19:39 | 25.91964 | 53.59604 | 28064 ft | 451 kts | 112° |
| 2026-04-22 19:39 | 25.90858 | 53.62851 | 27655 ft | 447 kts | 112° |
| 2026-04-22 19:39 | 25.90117 | 53.65027 | 27376 ft | 444 kts | 112° |
| 2026-04-22 19:39 | 25.89395 | 53.67142 | 27111 ft | 442 kts | 112° |
| 2026-04-22 19:40 | 25.87945 | 53.71391 | 26576 ft | 437 kts | 112° |
| 2026-04-22 19:40 | 25.86875 | 53.74526 | 26183 ft | 433 kts | 112° |
| 2026-04-22 19:40 | 25.85809 | 53.77644 | 25782 ft | 430 kts | 113° |
| 2026-04-22 19:40 | 25.84752 | 53.80734 | 25383 ft | 427 kts | 113° |
| 2026-04-22 19:41 | 25.83701 | 53.83802 | 24997 ft | 424 kts | 113° |
| 2026-04-22 19:41 | 25.82671 | 53.86809 | 24609 ft | 421 kts | 113° |
| 2026-04-22 19:41 | 25.81632 | 53.89838 | 24215 ft | 419 kts | 113° |
| 2026-04-22 19:41 | 25.80586 | 53.92885 | 23882 ft | 414 kts | 113° |
| 2026-04-22 19:42 | 25.79577 | 53.95828 | 23817 ft | 402 kts | 113° |
| 2026-04-22 19:42 | 25.78611 | 53.98642 | 23799 ft | 389 kts | 113° |
| 2026-04-22 19:42 | 25.77663 | 54.01403 | 23787 ft | 376 kts | 113° |
| 2026-04-22 19:42 | 25.76747 | 54.04068 | 23788 ft | 364 kts | 114° |
| 2026-04-22 19:43 | 25.75003 | 54.09130 | 23784 ft | 339 kts | 114° |
| 2026-04-22 19:43 | 25.74177 | 54.11527 | 23785 ft | 328 kts | 114° |
| 2026-04-22 19:43 | 25.73368 | 54.13868 | 23791 ft | 324 kts | 114° |
| 2026-04-22 19:44 | 25.72554 | 54.16218 | 23811 ft | 329 kts | 114° |
| 2026-04-22 19:44 | 25.71727 | 54.18603 | 23824 ft | 334 kts | 114° |
| 2026-04-22 19:44 | 25.70892 | 54.21014 | 23814 ft | 334 kts | 114° |
| 2026-04-22 19:44 | 25.70062 | 54.23412 | 23794 ft | 332 kts | 114° |
| 2026-04-22 19:45 | 25.69238 | 54.25795 | 23801 ft | 330 kts | 114° |
| 2026-04-22 19:45 | 25.68416 | 54.28169 | 23800 ft | 329 kts | 114° |
| 2026-04-22 19:45 | 25.67602 | 54.30520 | 23678 ft | 326 kts | 114° |
| 2026-04-22 19:45 | 25.66777 | 54.32897 | 23178 ft | 335 kts | 114° |
| 2026-04-22 19:46 | 25.65912 | 54.35379 | 22082 ft | 358 kts | 114° |
| 2026-04-22 19:46 | 25.64985 | 54.38038 | 21148 ft | 377 kts | 113° |
| 2026-04-22 19:46 | 25.64042 | 54.40755 | 20714 ft | 378 kts | 113° |
| 2026-04-22 19:46 | 25.63107 | 54.43456 | 20461 ft | 373 kts | 113° |
| 2026-04-22 19:47 | 25.62183 | 54.46118 | 20179 ft | 369 kts | 113° |
| 2026-04-22 19:47 | 25.61263 | 54.48765 | 19839 ft | 367 kts | 113° |
| 2026-04-22 19:47 | 25.60347 | 54.51397 | 19503 ft | 365 kts | 113° |
| 2026-04-22 19:47 | 25.59435 | 54.54014 | 19200 ft | 363 kts | 113° |
| 2026-04-22 19:48 | 25.58535 | 54.56610 | 18886 ft | 361 kts | 111° |
| 2026-04-22 19:48 | 25.58007 | 54.59331 | 18545 ft | 362 kts | 95° |
| 2026-04-22 19:48 | 25.58134 | 54.62106 | 18258 ft | 361 kts | 82° |
| 2026-04-22 19:48 | 25.58500 | 54.64846 | 17944 ft | 358 kts | 82° |
| 2026-04-22 19:49 | 25.58878 | 54.67566 | 17580 ft | 357 kts | 82° |
| 2026-04-22 19:49 | 25.59249 | 54.70285 | 17224 ft | 356 kts | 82° |
| 2026-04-22 19:49 | 25.59605 | 54.72985 | 16879 ft | 354 kts | 82° |
| 2026-04-22 19:49 | 25.59951 | 54.75678 | 16549 ft | 352 kts | 83° |
| 2026-04-22 19:50 | 25.60290 | 54.78347 | 16271 ft | 348 kts | 83° |
| 2026-04-22 19:50 | 25.60623 | 54.80996 | 15948 ft | 347 kts | 83° |
| 2026-04-22 19:50 | 25.60955 | 54.83638 | 15613 ft | 345 kts | 83° |
| 2026-04-22 19:50 | 25.61106 | 54.86243 | 15260 ft | 342 kts | 99° |
| 2026-04-22 19:51 | 25.60473 | 54.88752 | 14962 ft | 336 kts | 115° |
| 2026-04-22 19:51 | 25.59535 | 54.91139 | 14672 ft | 332 kts | 117° |
| 2026-04-22 19:51 | 25.58590 | 54.93432 | 14365 ft | 331 kts | 118° |
| 2026-04-22 19:51 | 25.57642 | 54.95751 | 14051 ft | 330 kts | 117° |
| 2026-04-22 19:52 | 25.56714 | 54.98069 | 13760 ft | 328 kts | 117° |
| 2026-04-22 19:52 | 25.55800 | 55.00380 | 13454 ft | 327 kts | 117° |
| 2026-04-22 19:52 | 25.54896 | 55.02674 | 13187 ft | 323 kts | 117° |
| 2026-04-22 19:52 | 25.53928 | 55.04890 | 12901 ft | 318 kts | 122° |
| 2026-04-22 19:53 | 25.52831 | 55.07007 | 12570 ft | 317 kts | 124° |
| 2026-04-22 19:53 | 25.51709 | 55.09100 | 12258 ft | 315 kts | 124° |
| 2026-04-22 19:53 | 25.50598 | 55.11182 | 11963 ft | 313 kts | 124° |
| 2026-04-22 19:53 | 25.49507 | 55.13254 | 11651 ft | 312 kts | 124° |
| 2026-04-22 19:54 | 25.48425 | 55.15327 | 11347 ft | 310 kts | 124° |
| 2026-04-22 19:54 | 25.47349 | 55.17396 | 11054 ft | 309 kts | 123° |
| 2026-04-22 19:54 | 25.46282 | 55.19445 | 10764 ft | 306 kts | 124° |
| 2026-04-22 19:54 | 25.45056 | 55.21328 | 10528 ft | 299 kts | 135° |
| 2026-04-22 19:55 | 25.43657 | 55.23017 | 10247 ft | 296 kts | 137° |
| 2026-04-22 19:55 | 25.42241 | 55.24667 | 9948 ft | 295 kts | 137° |
| 2026-04-22 19:55 | 25.40840 | 55.26324 | 9659 ft | 294 kts | 136° |
| 2026-04-22 19:55 | 25.39459 | 55.27993 | 9289 ft | 295 kts | 136° |
| 2026-04-22 19:56 | 25.38078 | 55.29679 | 8953 ft | 295 kts | 135° |
| 2026-04-22 19:56 | 25.36706 | 55.31360 | 8651 ft | 294 kts | 135° |
| 2026-04-22 19:56 | 25.35265 | 55.32934 | 8329 ft | 289 kts | 149° |
| 2026-04-22 19:56 | 25.33541 | 55.34006 | 8141 ft | 283 kts | 156° |
| 2026-04-22 19:57 | 25.31793 | 55.34993 | 7975 ft | 282 kts | 156° |
| 2026-04-22 19:57 | 25.30046 | 55.35983 | 7826 ft | 283 kts | 156° |
| 2026-04-22 19:57 | 25.28293 | 55.36988 | 7672 ft | 284 kts | 155° |
| 2026-04-22 19:57 | 25.26546 | 55.37999 | 7529 ft | 285 kts | 155° |
| 2026-04-22 19:58 | 25.24802 | 55.39015 | 7372 ft | 285 kts | 155° |
| 2026-04-22 19:58 | 25.23042 | 55.40043 | 7218 ft | 286 kts | 154° |
| 2026-04-22 19:58 | 25.21283 | 55.41072 | 7063 ft | 287 kts | 154° |
| 2026-04-22 19:58 | 25.19517 | 55.42104 | 6914 ft | 287 kts | 154° |
| 2026-04-22 19:59 | 25.17752 | 55.43137 | 6787 ft | 287 kts | 154° |
| 2026-04-22 20:00 | 25.08764 | 55.51271 | 6173 ft | 289 kts | 123° |
| 2026-04-22 20:00 | 25.07722 | 55.53167 | 6068 ft | 289 kts | 123° |
| 2026-04-22 20:01 | 25.06699 | 55.55018 | 5956 ft | 284 kts | 124° |
| 2026-04-22 20:01 | 25.05678 | 55.56849 | 5842 ft | 276 kts | 124° |
| 2026-04-22 20:01 | 25.04685 | 55.58623 | 5741 ft | 267 kts | 123° |
| 2026-04-22 20:01 | 25.03727 | 55.60340 | 5636 ft | 259 kts | 123° |
| 2026-04-22 20:02 | 25.02802 | 55.62013 | 5550 ft | 251 kts | 123° |
| 2026-04-22 20:02 | 25.01907 | 55.63633 | 5460 ft | 244 kts | 123° |
| 2026-04-22 20:02 | 25.01037 | 55.65206 | 5375 ft | 236 kts | 123° |
| 2026-04-22 20:02 | 25.00192 | 55.66727 | 5288 ft | 229 kts | 123° |
| 2026-04-22 20:03 | 24.99364 | 55.68205 | 5226 ft | 227 kts | 124° |
| 2026-04-22 20:03 | 24.98550 | 55.69658 | 5138 ft | 217 kts | 124° |
| 2026-04-22 20:03 | 24.97778 | 55.71037 | 5101 ft | 208 kts | 124° |
| 2026-04-22 20:03 | 24.97017 | 55.72393 | 5042 ft | 207 kts | 124° |
| 2026-04-22 20:04 | 24.96262 | 55.73740 | 4967 ft | 208 kts | 124° |
| 2026-04-22 20:04 | 24.95505 | 55.75091 | 4893 ft | 208 kts | 123° |
| 2026-04-22 20:04 | 24.94761 | 55.76463 | 4805 ft | 209 kts | 116° |
| 2026-04-22 20:04 | 24.94595 | 55.78034 | 4712 ft | 212 kts | 76° |
| 2026-04-22 20:05 | 24.95371 | 55.79375 | 4658 ft | 211 kts | 38° |
| 2026-04-22 20:05 | 24.96597 | 55.80297 | 4619 ft | 216 kts | 30° |
| 2026-04-22 20:05 | 24.97898 | 55.81125 | 4533 ft | 215 kts | 21° |
| 2026-04-22 20:05 | 24.99339 | 55.81298 | 4439 ft | 208 kts | 343° |
| 2026-04-22 20:06 | 25.00590 | 55.80566 | 4377 ft | 204 kts | 314° |
| 2026-04-22 20:06 | 25.01419 | 55.79335 | 4323 ft | 202 kts | 299° |
| 2026-04-22 20:06 | 25.02154 | 55.78008 | 4230 ft | 203 kts | 300° |
| 2026-04-22 20:06 | 25.02893 | 55.76680 | 4141 ft | 203 kts | 300° |
| 2026-04-22 20:07 | 25.03630 | 55.75352 | 4085 ft | 203 kts | 300° |
| 2026-04-22 20:07 | 25.04371 | 55.74022 | 4011 ft | 203 kts | 300° |
| 2026-04-22 20:07 | 25.05111 | 55.72696 | 3940 ft | 203 kts | 301° |
| 2026-04-22 20:07 | 25.05851 | 55.71371 | 3860 ft | 203 kts | 300° |
| 2026-04-22 20:08 | 25.06588 | 55.70050 | 3788 ft | 202 kts | 301° |
| 2026-04-22 20:08 | 25.07324 | 55.68732 | 3714 ft | 201 kts | 301° |
| 2026-04-22 20:08 | 25.08057 | 55.67418 | 3637 ft | 201 kts | 301° |
| 2026-04-22 20:08 | 25.08780 | 55.66121 | 3575 ft | 195 kts | 301° |
| 2026-04-22 20:09 | 25.09470 | 55.64885 | 3475 ft | 183 kts | 301° |
| 2026-04-22 20:09 | 25.10123 | 55.63714 | 3410 ft | 178 kts | 301° |
| 2026-04-22 20:09 | 25.10806 | 55.62566 | 3375 ft | 180 kts | 303° |
| 2026-04-22 20:09 | 25.11517 | 55.61418 | 3327 ft | 182 kts | 304° |
| 2026-04-22 20:10 | 25.12233 | 55.60262 | 3262 ft | 183 kts | 304° |
| 2026-04-22 20:10 | 25.12955 | 55.59094 | 3208 ft | 185 kts | 305° |
| 2026-04-22 20:10 | 25.13716 | 55.57955 | 3127 ft | 184 kts | 306° |
| 2026-04-22 20:10 | 25.14436 | 55.56795 | 3053 ft | 183 kts | 303° |
| 2026-04-22 20:11 | 25.15114 | 55.55618 | 2994 ft | 182 kts | 302° |
| 2026-04-22 20:11 | 25.15775 | 55.54434 | 2933 ft | 183 kts | 301° |
| 2026-04-22 20:11 | 25.16430 | 55.53249 | 2869 ft | 183 kts | 301° |
| 2026-04-22 20:11 | 25.17091 | 55.52048 | 2779 ft | 184 kts | 302° |
| 2026-04-22 20:12 | 25.17764 | 55.50826 | 2553 ft | 186 kts | 302° |
| 2026-04-22 20:12 | 25.18434 | 55.49609 | 2314 ft | 185 kts | 302° |
| 2026-04-22 20:12 | 25.18875 | 55.48808 | 2160 ft | 183 kts | 302° |
| 2026-04-22 20:12 | 25.19753 | 55.47215 | 1850 ft | 180 kts | 302° |
| 2026-04-22 20:13 | 25.20399 | 55.46042 | 1634 ft | 177 kts | 302° |
| 2026-04-22 20:13 | 25.21021 | 55.44913 | 1408 ft | 167 kts | 302° |
| 2026-04-22 20:13 | 25.21607 | 55.43849 | 1211 ft | 161 kts | 302° |
| 2026-04-22 20:13 | 25.22179 | 55.42812 | 1014 ft | 156 kts | 302° |
| 2026-04-22 20:14 | 25.22721 | 55.41786 | 793 ft | 153 kts | 301° |
| 2026-04-22 20:14 | 25.23249 | 55.40811 | 628 ft | 147 kts | 303° |
| 2026-04-22 20:14 | 25.23784 | 55.39867 | 433 ft | 147 kts | 302° |
| 2026-04-22 20:14 | 25.24308 | 55.38920 | 241 ft | 146 kts | 302° |
| 2026-04-22 20:15 | 25.24835 | 55.37971 | 51 ft | 145 kts | 303° |
| 2026-04-22 20:15 | 25.25326 | 55.37092 | 24 ft | 120 kts | 301° |
| 2026-04-22 20:15 | 25.25696 | 55.36423 | 24 ft | 85 kts | 300° |
| 2026-04-22 20:15 | 25.25936 | 55.35977 | 27 ft | 51 kts | 294° |
| 2026-04-22 20:16 | 25.25960 | 55.35724 | 21 ft | 30 kts | 276° |
| 2026-04-22 20:16 | 25.26009 | 55.35513 | 22 ft | 28 kts | 288° |
| 2026-04-22 20:16 | 25.26000 | 55.35405 | 22 ft | 10 kts | 259° |
| 2026-04-22 20:16 | 25.25956 | 55.35345 | 22 ft | 10 kts | 227° |
| 2026-04-22 20:17 | 25.25899 | 55.35300 | 20 ft | 10 kts | 212° |
| 2026-04-22 20:17 | 25.25845 | 55.35263 | 21 ft | 10 kts | 211° |
| 2026-04-22 20:17 | 25.25784 | 55.35224 | 23 ft | 11 kts | 210° |
| 2026-04-22 20:17 | 25.25744 | 55.35160 | 20 ft | 11 kts | 283° |
| 2026-04-22 20:18 | 25.25730 | 55.35077 | 21 ft | 14 kts | 223° |
| 2026-04-22 20:18 | 25.25645 | 55.35018 | 22 ft | 15 kts | 212° |
| 2026-04-22 20:18 | 25.25559 | 55.34954 | 21 ft | 14 kts | 241° |
| 2026-04-22 20:18 | 25.25565 | 55.34849 | 20 ft | 14 kts | 290° |
| 2026-04-22 20:19 | 25.25595 | 55.34793 | 21 ft | 4 kts | 302° |
| 2026-04-22 20:19 | 25.25608 | 55.34770 | 21 ft | 4 kts | 302° |
| 2026-04-22 20:19 | 25.25621 | 55.34748 | 22 ft | 3 kts | 302° |
| 2026-04-22 20:19 | 25.25623 | 55.34745 | 21 ft | 0 kts | 302° |